T7ZEM SLPO-SCPD
Flight info
| Callsign | T7ZEM |
|---|---|
| Flight time | N/A |
| Altitude | 28000 |
| Route | IVSOS UN525 ARUBO UL540 SOTKU/N0309F270 UT293 ENTOP UQ815 MORMI UQ803 ISGUD UL302 SIMOK UQ803 UGOLA |
| Aircraft | TBM8/L-SDFGRWY/S |
Departure
| Time | 2026-04-25 06:42 |
|---|---|
| Airport | Capitan Nicolas Rojas Airport (SLPO) |
Arrival
| Time | N/A |
|---|---|
| Airport | Peldehue Aerodrome (SCPD) |
| Time | Latitude | Longitude | Altitude | Speed | Heading |
|---|---|---|---|---|---|
| 2026-04-25 06:34 | -19.54317 | -65.72049 | 12569 ft | 0 kts | 219° |
| 2026-04-25 06:39 | -19.54285 | -65.72038 | 12568 ft | 16 kts | 19° |
| 2026-04-25 06:39 | -19.54176 | -65.72086 | 12566 ft | 18 kts | 338° |
| 2026-04-25 06:39 | -19.54080 | -65.71997 | 12560 ft | 22 kts | 50° |
| 2026-04-25 06:39 | -19.53987 | -65.71849 | 12551 ft | 26 kts | 56° |
| 2026-04-25 06:40 | -19.53871 | -65.71680 | 12544 ft | 30 kts | 54° |
| 2026-04-25 06:40 | -19.53777 | -65.71523 | 12540 ft | 13 kts | 332° |
| 2026-04-25 06:40 | -19.53840 | -65.71638 | 12545 ft | 32 kts | 237° |
| 2026-04-25 06:40 | -19.54029 | -65.71932 | 12556 ft | 64 kts | 237° |
| 2026-04-25 06:41 | -19.54336 | -65.72415 | 12581 ft | 93 kts | 236° |
| 2026-04-25 06:41 | -19.54751 | -65.73065 | 12623 ft | 119 kts | 236° |
| 2026-04-25 06:41 | -19.55256 | -65.73843 | 12697 ft | 138 kts | 233° |
| 2026-04-25 06:41 | -19.55922 | -65.74677 | 12894 ft | 157 kts | 215° |
| 2026-04-25 06:42 | -19.56883 | -65.75330 | 13184 ft | 171 kts | 220° |
| 2026-04-25 06:42 | -19.57747 | -65.76280 | 13402 ft | 188 kts | 229° |
| 2026-04-25 06:42 | -19.58651 | -65.77367 | 13587 ft | 205 kts | 227° |
| 2026-04-25 06:42 | -19.59649 | -65.78517 | 13776 ft | 218 kts | 226° |
| 2026-04-25 06:43 | -19.60712 | -65.79727 | 13960 ft | 229 kts | 226° |
| 2026-04-25 06:43 | -19.61822 | -65.80994 | 14105 ft | 238 kts | 226° |
| 2026-04-25 06:43 | -19.63007 | -65.82253 | 14240 ft | 245 kts | 216° |
| 2026-04-25 06:43 | -19.64583 | -65.82943 | 14346 ft | 249 kts | 190° |
| 2026-04-25 06:44 | -19.66296 | -65.82896 | 14437 ft | 252 kts | 171° |
| 2026-04-25 06:44 | -19.68042 | -65.82605 | 14509 ft | 256 kts | 171° |
| 2026-04-25 06:44 | -19.69816 | -65.82333 | 14584 ft | 259 kts | 172° |
| 2026-04-25 06:44 | -19.71608 | -65.82059 | 14652 ft | 261 kts | 172° |
| 2026-04-25 06:45 | -19.73412 | -65.81776 | 14715 ft | 263 kts | 172° |
| 2026-04-25 06:45 | -19.75226 | -65.81491 | 14816 ft | 264 kts | 172° |
| 2026-04-25 06:45 | -19.77047 | -65.81208 | 14930 ft | 264 kts | 172° |
| 2026-04-25 06:45 | -19.78870 | -65.80926 | 15045 ft | 265 kts | 172° |
| 2026-04-25 06:46 | -19.80699 | -65.80641 | 15135 ft | 266 kts | 172° |
| 2026-04-25 06:46 | -19.82538 | -65.80354 | 15256 ft | 267 kts | 172° |
| 2026-04-25 06:46 | -19.84379 | -65.80068 | 15373 ft | 267 kts | 172° |
| 2026-04-25 06:46 | -19.86218 | -65.79778 | 15488 ft | 267 kts | 172° |
| 2026-04-25 06:47 | -19.88058 | -65.79492 | 15605 ft | 266 kts | 173° |
| 2026-04-25 06:47 | -19.89895 | -65.79207 | 15719 ft | 267 kts | 173° |
| 2026-04-25 06:47 | -19.91733 | -65.78922 | 15845 ft | 267 kts | 172° |
| 2026-04-25 06:47 | -19.93576 | -65.78634 | 15932 ft | 268 kts | 173° |
| 2026-04-25 06:48 | -19.95423 | -65.78355 | 16051 ft | 268 kts | 172° |
| 2026-04-25 06:48 | -19.97246 | -65.78056 | 16169 ft | 268 kts | 172° |
| 2026-04-25 06:48 | -19.99091 | -65.77762 | 16291 ft | 268 kts | 173° |
| 2026-04-25 06:48 | -20.00962 | -65.77481 | 16412 ft | 269 kts | 174° |
| 2026-04-25 06:49 | -20.02783 | -65.77646 | 16515 ft | 267 kts | 198° |
| 2026-04-25 06:49 | -20.04418 | -65.78545 | 16613 ft | 265 kts | 219° |
| 2026-04-25 06:49 | -20.05678 | -65.79959 | 16721 ft | 263 kts | 231° |
| 2026-04-25 06:49 | -20.06860 | -65.81442 | 16846 ft | 262 kts | 231° |
| 2026-04-25 06:50 | -20.08048 | -65.82907 | 16974 ft | 261 kts | 231° |
| 2026-04-25 06:50 | -20.09229 | -65.84376 | 17098 ft | 260 kts | 231° |
| 2026-04-25 06:50 | -20.10404 | -65.85838 | 17224 ft | 260 kts | 230° |
| 2026-04-25 06:50 | -20.11589 | -65.87303 | 17353 ft | 261 kts | 231° |
| 2026-04-25 06:51 | -20.12766 | -65.88773 | 17474 ft | 261 kts | 231° |
| 2026-04-25 06:51 | -20.13938 | -65.90244 | 17601 ft | 260 kts | 230° |
| 2026-04-25 06:51 | -20.15124 | -65.91697 | 17724 ft | 259 kts | 230° |
| 2026-04-25 06:51 | -20.16304 | -65.93149 | 17853 ft | 259 kts | 231° |
| 2026-04-25 06:52 | -20.17476 | -65.94619 | 17970 ft | 260 kts | 231° |
| 2026-04-25 06:52 | -20.18643 | -65.96086 | 18096 ft | 260 kts | 231° |
| 2026-04-25 06:52 | -20.19804 | -65.97525 | 18219 ft | 259 kts | 231° |
| 2026-04-25 06:52 | -20.20981 | -65.98985 | 18349 ft | 259 kts | 231° |
| 2026-04-25 06:53 | -20.22156 | -66.00446 | 18473 ft | 260 kts | 231° |
| 2026-04-25 06:53 | -20.23335 | -66.01895 | 18583 ft | 259 kts | 231° |
| 2026-04-25 06:53 | -20.24496 | -66.03359 | 18688 ft | 259 kts | 231° |
| 2026-04-25 06:53 | -20.25659 | -66.04836 | 18804 ft | 260 kts | 230° |
| 2026-04-25 06:54 | -20.26849 | -66.06297 | 18917 ft | 261 kts | 230° |
| 2026-04-25 06:54 | -20.28036 | -66.07767 | 19025 ft | 261 kts | 231° |
| 2026-04-25 06:54 | -20.29216 | -66.09241 | 19134 ft | 261 kts | 231° |
| 2026-04-25 06:54 | -20.30377 | -66.10701 | 19246 ft | 261 kts | 231° |
| 2026-04-25 06:55 | -20.31559 | -66.12175 | 19359 ft | 262 kts | 231° |
| 2026-04-25 06:55 | -20.32749 | -66.13649 | 19478 ft | 262 kts | 231° |
| 2026-04-25 06:55 | -20.33934 | -66.15129 | 19591 ft | 263 kts | 231° |
| 2026-04-25 06:55 | -20.35122 | -66.16614 | 19694 ft | 263 kts | 231° |
| 2026-04-25 06:56 | -20.36309 | -66.18096 | 19814 ft | 263 kts | 231° |
| 2026-04-25 06:56 | -20.37495 | -66.19583 | 19932 ft | 264 kts | 231° |
| 2026-04-25 06:56 | -20.38691 | -66.21075 | 20045 ft | 264 kts | 231° |
| 2026-04-25 06:56 | -20.39885 | -66.22563 | 20157 ft | 264 kts | 231° |
| 2026-04-25 06:57 | -20.41077 | -66.24054 | 20273 ft | 264 kts | 231° |
| 2026-04-25 06:57 | -20.42275 | -66.25550 | 20394 ft | 265 kts | 231° |
| 2026-04-25 06:57 | -20.43454 | -66.27027 | 20507 ft | 265 kts | 231° |
| 2026-04-25 06:57 | -20.44654 | -66.28529 | 20625 ft | 266 kts | 231° |
| 2026-04-25 06:58 | -20.45858 | -66.30036 | 20742 ft | 266 kts | 231° |
| 2026-04-25 06:58 | -20.47062 | -66.31542 | 20866 ft | 267 kts | 231° |
| 2026-04-25 06:58 | -20.48266 | -66.33048 | 20974 ft | 267 kts | 231° |
| 2026-04-25 06:58 | -20.49471 | -66.34559 | 21083 ft | 267 kts | 231° |
| 2026-04-25 06:59 | -20.50673 | -66.36068 | 21198 ft | 266 kts | 231° |
| 2026-04-25 06:59 | -20.51858 | -66.37552 | 21312 ft | 266 kts | 231° |
| 2026-04-25 06:59 | -20.53057 | -66.39052 | 21438 ft | 266 kts | 231° |
| 2026-04-25 06:59 | -20.54257 | -66.40557 | 21555 ft | 266 kts | 231° |
| 2026-04-25 07:00 | -20.55458 | -66.42064 | 21675 ft | 266 kts | 231° |
| 2026-04-25 07:00 | -20.56658 | -66.43568 | 21796 ft | 266 kts | 231° |
| 2026-04-25 07:00 | -20.57857 | -66.45073 | 21917 ft | 266 kts | 231° |
| 2026-04-25 07:00 | -20.59057 | -66.46579 | 22039 ft | 266 kts | 231° |
| 2026-04-25 07:01 | -20.60258 | -66.48087 | 22162 ft | 267 kts | 231° |
| 2026-04-25 07:01 | -20.61463 | -66.49600 | 22284 ft | 267 kts | 231° |
| 2026-04-25 07:01 | -20.62665 | -66.51110 | 22416 ft | 267 kts | 231° |
| 2026-04-25 07:01 | -20.63871 | -66.52624 | 22540 ft | 267 kts | 231° |
| 2026-04-25 07:02 | -20.65074 | -66.54137 | 22667 ft | 267 kts | 231° |
| 2026-04-25 07:02 | -20.66277 | -66.55648 | 22789 ft | 268 kts | 231° |
| 2026-04-25 07:02 | -20.67470 | -66.57148 | 22916 ft | 268 kts | 231° |
| 2026-04-25 07:02 | -20.68676 | -66.58666 | 23043 ft | 268 kts | 230° |
| 2026-04-25 07:03 | -20.69883 | -66.60184 | 23164 ft | 268 kts | 230° |
| 2026-04-25 07:03 | -20.71091 | -66.61703 | 23297 ft | 268 kts | 230° |
| 2026-04-25 07:03 | -20.72302 | -66.63227 | 23425 ft | 269 kts | 230° |
| 2026-04-25 07:03 | -20.73511 | -66.64749 | 23549 ft | 269 kts | 230° |
| 2026-04-25 07:04 | -20.74720 | -66.66273 | 23682 ft | 269 kts | 230° |
| 2026-04-25 07:04 | -20.75931 | -66.67797 | 23792 ft | 269 kts | 230° |
| 2026-04-25 07:04 | -20.77141 | -66.69323 | 23904 ft | 269 kts | 230° |
| 2026-04-25 07:04 | -20.78361 | -66.70848 | 24012 ft | 269 kts | 230° |
| 2026-04-25 07:05 | -20.79592 | -66.72356 | 24129 ft | 269 kts | 229° |
| 2026-04-25 07:05 | -20.80819 | -66.73865 | 24239 ft | 269 kts | 230° |
| 2026-04-25 07:05 | -20.82039 | -66.75375 | 24347 ft | 268 kts | 230° |
| 2026-04-25 07:05 | -20.83258 | -66.76883 | 24457 ft | 268 kts | 230° |
| 2026-04-25 07:06 | -20.84476 | -66.78389 | 24568 ft | 268 kts | 230° |
| 2026-04-25 07:06 | -20.85693 | -66.79895 | 24678 ft | 267 kts | 230° |
| 2026-04-25 07:06 | -20.86909 | -66.81399 | 24788 ft | 267 kts | 230° |
| 2026-04-25 07:06 | -20.88108 | -66.82882 | 24896 ft | 267 kts | 230° |
| 2026-04-25 07:07 | -20.89324 | -66.84388 | 25007 ft | 267 kts | 230° |
| 2026-04-25 07:07 | -20.90537 | -66.85889 | 25119 ft | 267 kts | 230° |
| 2026-04-25 07:07 | -20.91751 | -66.87393 | 25235 ft | 266 kts | 230° |
| 2026-04-25 07:07 | -20.92962 | -66.88893 | 25343 ft | 266 kts | 230° |
| 2026-04-25 07:08 | -20.94172 | -66.90393 | 25465 ft | 266 kts | 230° |
| 2026-04-25 07:08 | -20.95382 | -66.91891 | 25578 ft | 266 kts | 230° |
| 2026-04-25 07:08 | -20.96592 | -66.93392 | 25692 ft | 266 kts | 230° |
| 2026-04-25 07:08 | -20.97796 | -66.94886 | 25805 ft | 265 kts | 230° |
| 2026-04-25 07:09 | -20.99002 | -66.96382 | 25922 ft | 265 kts | 230° |
| 2026-04-25 07:09 | -21.00193 | -66.97860 | 26035 ft | 265 kts | 231° |
| 2026-04-25 07:09 | -21.01397 | -66.99354 | 26151 ft | 265 kts | 231° |
| 2026-04-25 07:09 | -21.02603 | -67.00851 | 26267 ft | 265 kts | 231° |
| 2026-04-25 07:10 | -21.03804 | -67.02343 | 26383 ft | 265 kts | 231° |
| 2026-04-25 07:10 | -21.05005 | -67.03834 | 26500 ft | 264 kts | 231° |
| 2026-04-25 07:10 | -21.06205 | -67.05325 | 26617 ft | 264 kts | 231° |
| 2026-04-25 07:10 | -21.07407 | -67.06819 | 26735 ft | 264 kts | 231° |
| 2026-04-25 07:11 | -21.08605 | -67.08308 | 26859 ft | 264 kts | 231° |
| 2026-04-25 07:11 | -21.09801 | -67.09797 | 26978 ft | 264 kts | 231° |
| 2026-04-25 07:11 | -21.10998 | -67.11284 | 27099 ft | 263 kts | 231° |
| 2026-04-25 07:11 | -21.12193 | -67.12772 | 27219 ft | 264 kts | 231° |
| 2026-04-25 07:12 | -21.13389 | -67.14260 | 27337 ft | 264 kts | 231° |
| 2026-04-25 07:12 | -21.15775 | -67.17230 | 27578 ft | 263 kts | 231° |
| 2026-04-25 07:12 | -21.16966 | -67.18714 | 27703 ft | 262 kts | 232° |
| 2026-04-25 07:13 | -21.18157 | -67.20199 | 27828 ft | 262 kts | 232° |
| 2026-04-25 07:13 | -21.19345 | -67.21678 | 27951 ft | 261 kts | 232° |
| 2026-04-25 07:13 | -21.20529 | -67.23154 | 28073 ft | 261 kts | 232° |
| 2026-04-25 07:13 | -21.21712 | -67.24629 | 28168 ft | 262 kts | 232° |
| 2026-04-25 07:14 | -21.22908 | -67.26124 | 28170 ft | 266 kts | 232° |
| 2026-04-25 07:14 | -21.24110 | -67.27623 | 28188 ft | 270 kts | 232° |
| 2026-04-25 07:14 | -21.25343 | -67.29159 | 28190 ft | 273 kts | 232° |
| 2026-04-25 07:14 | -21.26588 | -67.30718 | 28194 ft | 276 kts | 232° |
| 2026-04-25 07:15 | -21.27845 | -67.32288 | 28194 ft | 279 kts | 232° |
| 2026-04-25 07:15 | -21.29114 | -67.33870 | 28191 ft | 281 kts | 232° |
| 2026-04-25 07:15 | -21.30391 | -67.35465 | 28193 ft | 283 kts | 232° |
| 2026-04-25 07:15 | -21.31677 | -67.37073 | 28193 ft | 284 kts | 232° |
| 2026-04-25 07:16 | -21.32967 | -67.38685 | 28192 ft | 285 kts | 232° |
| 2026-04-25 07:16 | -21.34264 | -67.40307 | 28194 ft | 286 kts | 232° |
| 2026-04-25 07:16 | -21.35563 | -67.41932 | 28192 ft | 287 kts | 232° |
| 2026-04-25 07:16 | -21.36866 | -67.43561 | 28194 ft | 288 kts | 232° |
| 2026-04-25 07:17 | -21.38174 | -67.45199 | 28187 ft | 289 kts | 232° |
| 2026-04-25 07:17 | -21.39482 | -67.46836 | 28196 ft | 289 kts | 232° |
| 2026-04-25 07:17 | -21.40792 | -67.48477 | 28196 ft | 290 kts | 232° |
| 2026-04-25 07:17 | -21.42104 | -67.50120 | 28198 ft | 290 kts | 232° |
| 2026-04-25 07:18 | -21.43399 | -67.51744 | 28197 ft | 291 kts | 232° |
| 2026-04-25 07:18 | -21.44719 | -67.53398 | 28197 ft | 291 kts | 232° |
| 2026-04-25 07:18 | -21.46039 | -67.55052 | 28199 ft | 291 kts | 232° |
| 2026-04-25 07:18 | -21.47356 | -67.56704 | 28201 ft | 291 kts | 232° |
| 2026-04-25 07:19 | -21.48674 | -67.58357 | 28200 ft | 291 kts | 232° |
| 2026-04-25 07:19 | -21.49991 | -67.60011 | 28201 ft | 291 kts | 232° |
| 2026-04-25 07:19 | -21.51307 | -67.61664 | 28201 ft | 291 kts | 232° |
| 2026-04-25 07:19 | -21.52625 | -67.63317 | 28200 ft | 291 kts | 232° |
| 2026-04-25 07:20 | -21.53940 | -67.64969 | 28207 ft | 291 kts | 232° |
| 2026-04-25 07:20 | -21.55254 | -67.66619 | 28208 ft | 290 kts | 233° |
| 2026-04-25 07:20 | -21.56564 | -67.68267 | 28216 ft | 290 kts | 233° |
| 2026-04-25 07:20 | -21.57873 | -67.69911 | 28216 ft | 289 kts | 233° |
| 2026-04-25 07:21 | -21.59166 | -67.71538 | 28216 ft | 289 kts | 233° |
| 2026-04-25 07:21 | -21.60472 | -67.73183 | 28214 ft | 289 kts | 233° |
| 2026-04-25 07:21 | -21.61779 | -67.74826 | 28215 ft | 289 kts | 233° |
| 2026-04-25 07:21 | -21.63087 | -67.76473 | 28214 ft | 289 kts | 233° |
| 2026-04-25 07:22 | -21.64391 | -67.78114 | 28212 ft | 289 kts | 233° |
| 2026-04-25 07:22 | -21.65693 | -67.79755 | 28212 ft | 288 kts | 233° |
| 2026-04-25 07:22 | -21.66998 | -67.81398 | 28228 ft | 288 kts | 233° |
| 2026-04-25 07:22 | -21.68299 | -67.83037 | 28233 ft | 288 kts | 233° |
| 2026-04-25 07:23 | -21.69601 | -67.84680 | 28235 ft | 288 kts | 233° |
| 2026-04-25 07:23 | -21.70897 | -67.86314 | 28233 ft | 288 kts | 233° |
| 2026-04-25 07:23 | -21.72195 | -67.87949 | 28235 ft | 288 kts | 233° |
| 2026-04-25 07:23 | -21.73477 | -67.89568 | 28234 ft | 287 kts | 233° |
| 2026-04-25 07:24 | -21.74772 | -67.91204 | 28227 ft | 287 kts | 233° |
| 2026-04-25 07:24 | -21.76068 | -67.92841 | 28228 ft | 287 kts | 233° |
| 2026-04-25 07:24 | -21.77362 | -67.94474 | 28232 ft | 287 kts | 233° |
| 2026-04-25 07:24 | -21.78661 | -67.96114 | 28232 ft | 287 kts | 233° |
| 2026-04-25 07:25 | -21.79955 | -67.97750 | 28234 ft | 287 kts | 233° |
| 2026-04-25 07:25 | -21.81252 | -67.99390 | 28234 ft | 287 kts | 233° |
| 2026-04-25 07:25 | -21.82108 | -68.00472 | 28234 ft | 287 kts | 233° |
| 2026-04-25 07:25 | -21.83402 | -68.02110 | 28224 ft | 287 kts | 233° |
| 2026-04-25 07:26 | -21.84699 | -68.03750 | 28228 ft | 287 kts | 233° |
| 2026-04-25 07:26 | -21.86002 | -68.05379 | 28228 ft | 288 kts | 230° |
| 2026-04-25 07:26 | -21.87643 | -68.06638 | 28233 ft | 295 kts | 207° |
| 2026-04-25 07:26 | -21.89569 | -68.07445 | 28234 ft | 296 kts | 204° |
| 2026-04-25 07:27 | -21.91494 | -68.08215 | 28232 ft | 296 kts | 205° |
| 2026-04-25 07:27 | -21.93415 | -68.09000 | 28235 ft | 295 kts | 205° |
| 2026-04-25 07:27 | -21.95315 | -68.09783 | 28232 ft | 295 kts | 205° |
| 2026-04-25 07:27 | -21.97257 | -68.10578 | 28222 ft | 296 kts | 205° |
| 2026-04-25 07:28 | -21.99182 | -68.11364 | 28224 ft | 296 kts | 205° |
| 2026-04-25 07:28 | -22.01112 | -68.12155 | 28223 ft | 296 kts | 205° |
| 2026-04-25 07:28 | -22.03009 | -68.12933 | 28223 ft | 296 kts | 205° |
| 2026-04-25 07:28 | -22.04935 | -68.13723 | 28225 ft | 296 kts | 205° |
| 2026-04-25 07:29 | -22.06859 | -68.14511 | 28223 ft | 296 kts | 205° |
| 2026-04-25 07:29 | -22.08790 | -68.15302 | 28222 ft | 296 kts | 205° |
| 2026-04-25 07:29 | -22.10716 | -68.16094 | 28213 ft | 296 kts | 205° |
| 2026-04-25 07:29 | -22.12645 | -68.16884 | 28212 ft | 296 kts | 205° |
| 2026-04-25 07:30 | -22.14572 | -68.17676 | 28215 ft | 296 kts | 205° |
| 2026-04-25 07:30 | -22.16499 | -68.18468 | 28212 ft | 296 kts | 205° |
| 2026-04-25 07:30 | -22.18422 | -68.19257 | 28219 ft | 295 kts | 205° |
| 2026-04-25 07:30 | -22.20340 | -68.20045 | 28178 ft | 295 kts | 205° |
| 2026-04-25 07:31 | -22.22258 | -68.20833 | 28175 ft | 295 kts | 205° |
| 2026-04-25 07:31 | -22.24177 | -68.21623 | 28169 ft | 295 kts | 206° |
| 2026-04-25 07:31 | -22.26096 | -68.22412 | 28168 ft | 295 kts | 206° |
| 2026-04-25 07:31 | -22.28015 | -68.23201 | 28168 ft | 295 kts | 206° |
| 2026-04-25 07:32 | -22.29933 | -68.23990 | 28168 ft | 295 kts | 206° |
| 2026-04-25 07:32 | -22.31851 | -68.24779 | 28167 ft | 295 kts | 206° |
| 2026-04-25 07:32 | -22.33771 | -68.25571 | 28167 ft | 295 kts | 206° |
| 2026-04-25 07:32 | -22.35686 | -68.26358 | 28156 ft | 294 kts | 206° |
| 2026-04-25 07:33 | -22.37595 | -68.27145 | 28153 ft | 294 kts | 206° |
| 2026-04-25 07:33 | -22.39483 | -68.27924 | 28152 ft | 294 kts | 206° |
| 2026-04-25 07:33 | -22.41401 | -68.28714 | 28152 ft | 294 kts | 206° |
| 2026-04-25 07:33 | -22.43314 | -68.29503 | 28153 ft | 294 kts | 206° |
| 2026-04-25 07:34 | -22.45228 | -68.30293 | 28154 ft | 294 kts | 206° |
| 2026-04-25 07:34 | -22.47143 | -68.31082 | 28154 ft | 295 kts | 206° |
| 2026-04-25 07:34 | -22.49058 | -68.31873 | 28140 ft | 295 kts | 206° |
| 2026-04-25 07:34 | -22.50974 | -68.32663 | 28141 ft | 295 kts | 206° |
| 2026-04-25 07:35 | -22.52896 | -68.33458 | 28113 ft | 295 kts | 206° |
| 2026-04-25 07:35 | -22.54798 | -68.34243 | 28122 ft | 295 kts | 206° |
| 2026-04-25 07:35 | -22.56718 | -68.35035 | 28114 ft | 295 kts | 206° |
| 2026-04-25 07:35 | -22.58635 | -68.35828 | 28112 ft | 295 kts | 207° |
| 2026-04-25 07:36 | -22.60549 | -68.36620 | 28115 ft | 294 kts | 207° |
| 2026-04-25 07:36 | -22.62462 | -68.37411 | 28109 ft | 294 kts | 206° |
| 2026-04-25 07:36 | -22.64372 | -68.38201 | 28107 ft | 294 kts | 207° |
| 2026-04-25 07:36 | -22.66280 | -68.38991 | 28107 ft | 293 kts | 207° |
| 2026-04-25 07:37 | -22.68188 | -68.39779 | 28109 ft | 294 kts | 207° |
| 2026-04-25 07:37 | -22.70096 | -68.40571 | 28108 ft | 294 kts | 207° |
| 2026-04-25 07:37 | -22.72005 | -68.41362 | 28108 ft | 294 kts | 206° |
| 2026-04-25 07:37 | -22.73923 | -68.42137 | 28103 ft | 296 kts | 203° |
| 2026-04-25 07:38 | -22.75904 | -68.42756 | 28101 ft | 296 kts | 202° |
| 2026-04-25 07:38 | -22.77876 | -68.43403 | 28100 ft | 296 kts | 203° |
| 2026-04-25 07:38 | -22.79844 | -68.44055 | 28101 ft | 296 kts | 202° |
| 2026-04-25 07:38 | -22.81816 | -68.44694 | 28100 ft | 296 kts | 202° |
| 2026-04-25 07:39 | -22.83765 | -68.45321 | 28105 ft | 295 kts | 202° |
| 2026-04-25 07:39 | -22.85733 | -68.45959 | 28105 ft | 295 kts | 202° |
| 2026-04-25 07:39 | -22.87700 | -68.46600 | 28096 ft | 295 kts | 203° |
| 2026-04-25 07:39 | -22.89668 | -68.47238 | 28096 ft | 295 kts | 203° |
| 2026-04-25 07:40 | -22.91637 | -68.47878 | 28094 ft | 295 kts | 203° |
| 2026-04-25 07:40 | -22.93607 | -68.48517 | 28095 ft | 295 kts | 203° |
| 2026-04-25 07:40 | -22.95576 | -68.49160 | 28092 ft | 295 kts | 203° |
| 2026-04-25 07:40 | -22.97545 | -68.49798 | 28093 ft | 295 kts | 202° |
| 2026-04-25 07:41 | -22.99528 | -68.50407 | 28090 ft | 296 kts | 202° |
| 2026-04-25 07:41 | -23.01506 | -68.51015 | 28090 ft | 295 kts | 202° |
| 2026-04-25 07:41 | -23.03476 | -68.51632 | 28089 ft | 295 kts | 202° |
| 2026-04-25 07:41 | -23.05443 | -68.52252 | 28091 ft | 294 kts | 202° |
| 2026-04-25 07:42 | -23.07411 | -68.52867 | 28089 ft | 294 kts | 202° |
| 2026-04-25 07:42 | -23.09381 | -68.53480 | 28092 ft | 294 kts | 202° |
| 2026-04-25 07:42 | -23.11343 | -68.54095 | 28093 ft | 294 kts | 202° |
| 2026-04-25 07:42 | -23.13289 | -68.54705 | 28088 ft | 294 kts | 202° |
| 2026-04-25 07:43 | -23.15285 | -68.55328 | 28091 ft | 295 kts | 202° |
| 2026-04-25 07:43 | -23.17223 | -68.55948 | 28088 ft | 293 kts | 203° |
| 2026-04-25 07:43 | -23.19172 | -68.56599 | 28090 ft | 293 kts | 204° |
| 2026-04-25 07:43 | -23.21123 | -68.57244 | 28090 ft | 293 kts | 204° |
| 2026-04-25 07:44 | -23.23075 | -68.57877 | 28089 ft | 293 kts | 204° |
| 2026-04-25 07:44 | -23.25024 | -68.58513 | 28082 ft | 292 kts | 204° |
| 2026-04-25 07:44 | -23.26975 | -68.59154 | 28081 ft | 292 kts | 204° |
| 2026-04-25 07:44 | -23.28922 | -68.59792 | 28085 ft | 292 kts | 204° |
| 2026-04-25 07:45 | -23.30867 | -68.60429 | 28086 ft | 292 kts | 204° |
| 2026-04-25 07:45 | -23.32809 | -68.61065 | 28086 ft | 291 kts | 204° |
| 2026-04-25 07:45 | -23.34749 | -68.61702 | 28087 ft | 291 kts | 204° |
| 2026-04-25 07:45 | -23.36692 | -68.62339 | 28086 ft | 291 kts | 204° |
| 2026-04-25 07:46 | -23.38632 | -68.62976 | 28086 ft | 291 kts | 204° |
| 2026-04-25 07:46 | -23.40572 | -68.63613 | 28084 ft | 291 kts | 204° |
| 2026-04-25 07:46 | -23.42512 | -68.64249 | 28083 ft | 291 kts | 204° |
| 2026-04-25 07:46 | -23.44430 | -68.64878 | 28083 ft | 291 kts | 204° |
| 2026-04-25 07:47 | -23.46373 | -68.65517 | 28086 ft | 291 kts | 204° |
| 2026-04-25 07:47 | -23.48307 | -68.66153 | 28087 ft | 291 kts | 204° |
| 2026-04-25 07:47 | -23.50252 | -68.66792 | 28093 ft | 292 kts | 205° |
| 2026-04-25 07:47 | -23.52199 | -68.67432 | 28086 ft | 292 kts | 205° |
| 2026-04-25 07:48 | -23.54151 | -68.68074 | 28082 ft | 292 kts | 205° |
| 2026-04-25 07:48 | -23.56105 | -68.68717 | 28080 ft | 292 kts | 205° |
| 2026-04-25 07:48 | -23.58043 | -68.69354 | 28085 ft | 292 kts | 205° |
| 2026-04-25 07:48 | -23.59985 | -68.69993 | 28087 ft | 292 kts | 205° |
| 2026-04-25 07:49 | -23.61907 | -68.70628 | 28084 ft | 292 kts | 205° |
| 2026-04-25 07:49 | -23.63854 | -68.71268 | 28093 ft | 293 kts | 205° |
| 2026-04-25 07:49 | -23.65831 | -68.71916 | 28085 ft | 293 kts | 205° |
| 2026-04-25 07:49 | -23.67778 | -68.72563 | 28087 ft | 293 kts | 205° |
| 2026-04-25 07:50 | -23.69727 | -68.73206 | 28087 ft | 293 kts | 205° |
| 2026-04-25 07:50 | -23.71651 | -68.73839 | 28088 ft | 293 kts | 205° |
| 2026-04-25 07:50 | -23.73598 | -68.74480 | 28086 ft | 292 kts | 205° |
| 2026-04-25 07:50 | -23.75542 | -68.75121 | 28088 ft | 292 kts | 205° |
| 2026-04-25 07:51 | -23.77481 | -68.75762 | 28094 ft | 292 kts | 205° |
| 2026-04-25 07:51 | -23.79429 | -68.76406 | 28090 ft | 292 kts | 205° |
| 2026-04-25 07:51 | -23.81369 | -68.77047 | 28094 ft | 292 kts | 205° |
| 2026-04-25 07:51 | -23.83318 | -68.77690 | 28091 ft | 292 kts | 205° |
| 2026-04-25 07:52 | -23.85268 | -68.78334 | 28089 ft | 292 kts | 205° |
| 2026-04-25 07:52 | -23.87212 | -68.78977 | 28107 ft | 292 kts | 205° |
| 2026-04-25 07:52 | -23.89161 | -68.79622 | 28108 ft | 292 kts | 205° |
| 2026-04-25 07:52 | -23.91105 | -68.80265 | 28107 ft | 292 kts | 205° |
| 2026-04-25 07:53 | -23.93027 | -68.80902 | 28101 ft | 292 kts | 205° |
| 2026-04-25 07:53 | -23.94975 | -68.81546 | 28102 ft | 292 kts | 205° |
| 2026-04-25 07:53 | -23.96918 | -68.82190 | 28102 ft | 292 kts | 205° |
| 2026-04-25 07:53 | -23.98861 | -68.82834 | 28103 ft | 292 kts | 205° |
| 2026-04-25 07:54 | -24.00808 | -68.83479 | 28119 ft | 293 kts | 205° |
| 2026-04-25 07:54 | -24.02762 | -68.84127 | 28112 ft | 293 kts | 205° |
| 2026-04-25 07:54 | -24.04715 | -68.84775 | 28115 ft | 292 kts | 205° |
| 2026-04-25 07:54 | -24.06660 | -68.85418 | 28114 ft | 291 kts | 205° |
| 2026-04-25 07:55 | -24.08590 | -68.86059 | 28104 ft | 290 kts | 205° |
| 2026-04-25 07:55 | -24.10524 | -68.86701 | 28100 ft | 289 kts | 205° |
| 2026-04-25 07:55 | -24.12448 | -68.87340 | 28134 ft | 289 kts | 206° |
| 2026-04-25 07:55 | -24.14373 | -68.87979 | 28125 ft | 288 kts | 206° |
| 2026-04-25 07:56 | -24.16266 | -68.88613 | 28126 ft | 288 kts | 206° |
| 2026-04-25 07:56 | -24.18178 | -68.89244 | 28126 ft | 288 kts | 206° |
| 2026-04-25 07:56 | -24.20093 | -68.89878 | 28125 ft | 288 kts | 206° |
| 2026-04-25 07:56 | -24.22012 | -68.90517 | 28126 ft | 287 kts | 206° |
| 2026-04-25 07:57 | -24.23926 | -68.91155 | 28127 ft | 288 kts | 206° |
| 2026-04-25 07:57 | -24.25841 | -68.91793 | 28143 ft | 288 kts | 206° |
| 2026-04-25 07:57 | -24.27759 | -68.92430 | 28143 ft | 288 kts | 206° |
| 2026-04-25 07:57 | -24.29679 | -68.93069 | 28141 ft | 288 kts | 206° |
| 2026-04-25 07:58 | -24.31595 | -68.93706 | 28141 ft | 287 kts | 206° |
| 2026-04-25 07:58 | -24.33511 | -68.94346 | 28141 ft | 287 kts | 206° |
| 2026-04-25 07:58 | -24.35425 | -68.94985 | 28142 ft | 288 kts | 206° |
| 2026-04-25 07:58 | -24.37341 | -68.95623 | 28158 ft | 288 kts | 206° |
| 2026-04-25 07:59 | -24.39256 | -68.96261 | 28158 ft | 288 kts | 206° |
| 2026-04-25 07:59 | -24.41172 | -68.96900 | 28158 ft | 287 kts | 206° |
| 2026-04-25 07:59 | -24.43087 | -68.97540 | 28176 ft | 288 kts | 206° |
| 2026-04-25 07:59 | -24.45006 | -68.98180 | 28158 ft | 288 kts | 207° |
| 2026-04-25 08:00 | -24.46902 | -68.98813 | 28160 ft | 288 kts | 207° |
| 2026-04-25 08:00 | -24.48822 | -68.99454 | 28137 ft | 288 kts | 207° |
| 2026-04-25 08:00 | -24.50741 | -69.00095 | 28147 ft | 288 kts | 207° |
| 2026-04-25 08:00 | -24.52657 | -69.00735 | 28147 ft | 288 kts | 207° |
| 2026-04-25 08:01 | -24.54571 | -69.01375 | 28147 ft | 287 kts | 207° |
| 2026-04-25 08:01 | -24.56485 | -69.02015 | 28147 ft | 287 kts | 207° |
| 2026-04-25 08:01 | -24.58398 | -69.02655 | 28146 ft | 287 kts | 207° |
| 2026-04-25 08:01 | -24.60310 | -69.03295 | 28145 ft | 287 kts | 207° |
| 2026-04-25 08:02 | -24.62227 | -69.03937 | 28161 ft | 287 kts | 207° |
| 2026-04-25 08:02 | -24.64139 | -69.04577 | 28160 ft | 287 kts | 207° |
| 2026-04-25 08:02 | -24.66029 | -69.05210 | 28159 ft | 287 kts | 207° |
| 2026-04-25 08:02 | -24.67940 | -69.05850 | 28160 ft | 287 kts | 207° |
| 2026-04-25 08:03 | -24.69850 | -69.06490 | 28159 ft | 287 kts | 207° |
| 2026-04-25 08:03 | -24.71763 | -69.07131 | 28159 ft | 287 kts | 207° |
| 2026-04-25 08:03 | -24.73671 | -69.07771 | 28159 ft | 287 kts | 207° |
| 2026-04-25 08:03 | -24.75584 | -69.08413 | 28177 ft | 287 kts | 208° |
| 2026-04-25 08:04 | -24.77491 | -69.09053 | 28176 ft | 286 kts | 208° |
| 2026-04-25 08:04 | -24.79353 | -69.09768 | 28173 ft | 281 kts | 212° |
| 2026-04-25 08:04 | -24.81180 | -69.10538 | 28173 ft | 282 kts | 211° |
| 2026-04-25 08:04 | -24.83019 | -69.11280 | 28175 ft | 281 kts | 211° |
| 2026-04-25 08:05 | -24.84849 | -69.12032 | 28173 ft | 281 kts | 212° |
| 2026-04-25 08:05 | -24.86680 | -69.12797 | 28169 ft | 281 kts | 212° |
| 2026-04-25 08:05 | -24.88515 | -69.13563 | 28168 ft | 282 kts | 211° |
| 2026-04-25 08:05 | -24.90334 | -69.14315 | 28168 ft | 283 kts | 211° |
| 2026-04-25 08:06 | -24.92181 | -69.15078 | 28169 ft | 284 kts | 211° |
| 2026-04-25 08:06 | -24.94026 | -69.15844 | 28168 ft | 283 kts | 211° |
| 2026-04-25 08:06 | -24.95870 | -69.16612 | 28169 ft | 284 kts | 211° |
| 2026-04-25 08:06 | -24.97726 | -69.17384 | 28170 ft | 285 kts | 211° |
| 2026-04-25 08:07 | -24.99585 | -69.18157 | 28184 ft | 286 kts | 211° |
| 2026-04-25 08:07 | -25.01449 | -69.18931 | 28186 ft | 287 kts | 211° |
| 2026-04-25 08:07 | -25.03317 | -69.19707 | 28182 ft | 287 kts | 211° |
| 2026-04-25 08:07 | -25.05191 | -69.20486 | 28186 ft | 287 kts | 211° |
| 2026-04-25 08:08 | -25.07063 | -69.21265 | 28185 ft | 288 kts | 212° |
| 2026-04-25 08:08 | -25.08936 | -69.22047 | 28184 ft | 288 kts | 211° |
| 2026-04-25 08:08 | -25.10811 | -69.22827 | 28181 ft | 288 kts | 211° |
| 2026-04-25 08:08 | -25.12674 | -69.23616 | 28189 ft | 287 kts | 212° |
| 2026-04-25 08:09 | -25.14546 | -69.24384 | 28191 ft | 287 kts | 211° |
| 2026-04-25 08:09 | -25.16420 | -69.25155 | 28189 ft | 287 kts | 211° |
| 2026-04-25 08:09 | -25.18284 | -69.25938 | 28190 ft | 287 kts | 212° |
| 2026-04-25 08:09 | -25.20146 | -69.26719 | 28149 ft | 286 kts | 212° |
| 2026-04-25 08:10 | -25.21987 | -69.27482 | 28146 ft | 285 kts | 211° |
| 2026-04-25 08:10 | -25.23836 | -69.28252 | 28149 ft | 284 kts | 211° |
| 2026-04-25 08:10 | -25.25686 | -69.29018 | 28150 ft | 282 kts | 211° |
| 2026-04-25 08:10 | -25.27524 | -69.29781 | 28153 ft | 282 kts | 212° |
| 2026-04-25 08:11 | -25.29351 | -69.30576 | 28152 ft | 283 kts | 212° |
| 2026-04-25 08:11 | -25.31193 | -69.31343 | 28152 ft | 283 kts | 211° |
| 2026-04-25 08:11 | -25.33034 | -69.32098 | 28150 ft | 283 kts | 211° |
| 2026-04-25 08:11 | -25.34875 | -69.32866 | 28150 ft | 282 kts | 212° |
| 2026-04-25 08:12 | -25.36708 | -69.33636 | 28173 ft | 282 kts | 212° |
| 2026-04-25 08:12 | -25.38536 | -69.34402 | 28158 ft | 281 kts | 212° |
| 2026-04-25 08:12 | -25.40368 | -69.35168 | 28157 ft | 280 kts | 212° |
| 2026-04-25 08:12 | -25.42192 | -69.35930 | 28156 ft | 279 kts | 212° |
| 2026-04-25 08:13 | -25.43390 | -69.36432 | 28154 ft | 278 kts | 212° |
| 2026-04-25 08:13 | -25.45201 | -69.37191 | 28156 ft | 278 kts | 212° |
| 2026-04-25 08:13 | -25.47006 | -69.37948 | 28155 ft | 277 kts | 212° |
| 2026-04-25 08:14 | -25.50614 | -69.39462 | 28103 ft | 277 kts | 212° |
| 2026-04-25 08:14 | -25.53007 | -69.40465 | 28101 ft | 277 kts | 212° |
| 2026-04-25 08:14 | -25.54207 | -69.40969 | 28102 ft | 277 kts | 212° |
| 2026-04-25 08:14 | -25.56029 | -69.41696 | 28103 ft | 281 kts | 209° |
| 2026-04-25 08:15 | -25.57880 | -69.42365 | 28106 ft | 279 kts | 211° |
| 2026-04-25 08:15 | -25.59710 | -69.43084 | 28105 ft | 279 kts | 211° |
| 2026-04-25 08:15 | -25.61550 | -69.43789 | 28108 ft | 280 kts | 210° |
| 2026-04-25 08:15 | -25.63404 | -69.44477 | 28108 ft | 280 kts | 210° |
| 2026-04-25 08:16 | -25.65253 | -69.45167 | 28107 ft | 280 kts | 211° |
| 2026-04-25 08:16 | -25.67098 | -69.45863 | 28105 ft | 280 kts | 211° |
| 2026-04-25 08:16 | -25.68947 | -69.46558 | 28108 ft | 280 kts | 211° |
| 2026-04-25 08:16 | -25.70789 | -69.47250 | 28111 ft | 278 kts | 211° |
| 2026-04-25 08:17 | -25.72620 | -69.47939 | 28110 ft | 277 kts | 211° |
| 2026-04-25 08:17 | -25.74447 | -69.48628 | 28116 ft | 277 kts | 211° |
| 2026-04-25 08:17 | -25.76253 | -69.49308 | 28114 ft | 277 kts | 211° |
| 2026-04-25 08:17 | -25.78074 | -69.49993 | 28114 ft | 277 kts | 211° |
| 2026-04-25 08:18 | -25.79897 | -69.50680 | 28114 ft | 277 kts | 211° |
| 2026-04-25 08:18 | -25.81725 | -69.51370 | 28113 ft | 277 kts | 211° |
| 2026-04-25 08:18 | -25.83548 | -69.52056 | 28113 ft | 277 kts | 211° |
| 2026-04-25 08:18 | -25.85370 | -69.52744 | 28113 ft | 277 kts | 211° |
| 2026-04-25 08:19 | -25.87193 | -69.53432 | 28084 ft | 277 kts | 211° |
| 2026-04-25 08:19 | -25.89020 | -69.54121 | 28085 ft | 277 kts | 211° |
| 2026-04-25 08:19 | -25.90842 | -69.54808 | 28084 ft | 276 kts | 211° |
| 2026-04-25 08:19 | -25.92642 | -69.55489 | 28085 ft | 276 kts | 211° |
| 2026-04-25 08:20 | -25.94464 | -69.56177 | 28074 ft | 275 kts | 212° |
| 2026-04-25 08:20 | -25.96276 | -69.56864 | 28078 ft | 275 kts | 211° |
| 2026-04-25 08:20 | -25.98092 | -69.57547 | 28107 ft | 275 kts | 211° |
| 2026-04-25 08:20 | -25.99907 | -69.58233 | 28088 ft | 275 kts | 212° |
| 2026-04-25 08:21 | -26.01718 | -69.58919 | 28088 ft | 275 kts | 212° |
| 2026-04-25 08:21 | -26.03527 | -69.59604 | 28089 ft | 275 kts | 212° |
| 2026-04-25 08:21 | -26.05343 | -69.60291 | 28089 ft | 275 kts | 212° |
| 2026-04-25 08:21 | -26.07152 | -69.60976 | 28087 ft | 275 kts | 212° |
| 2026-04-25 08:22 | -26.08959 | -69.61660 | 28088 ft | 275 kts | 212° |
| 2026-04-25 08:22 | -26.10745 | -69.62373 | 28097 ft | 271 kts | 212° |
| 2026-04-25 08:22 | -26.12551 | -69.63027 | 28100 ft | 274 kts | 210° |
| 2026-04-25 08:22 | -26.14336 | -69.63672 | 28101 ft | 273 kts | 212° |
| 2026-04-25 08:23 | -26.16126 | -69.64367 | 28102 ft | 273 kts | 212° |
| 2026-04-25 08:23 | -26.17919 | -69.65062 | 28101 ft | 273 kts | 212° |
| 2026-04-25 08:23 | -26.19719 | -69.65743 | 28101 ft | 274 kts | 212° |
| 2026-04-25 08:23 | -26.21527 | -69.66424 | 28069 ft | 274 kts | 212° |
| 2026-04-25 08:24 | -26.23329 | -69.67109 | 28074 ft | 274 kts | 212° |
| 2026-04-25 08:24 | -26.25134 | -69.67797 | 28075 ft | 274 kts | 212° |
| 2026-04-25 08:24 | -26.26942 | -69.68484 | 28077 ft | 275 kts | 212° |
| 2026-04-25 08:24 | -26.28758 | -69.69174 | 28110 ft | 275 kts | 211° |
| 2026-04-25 08:25 | -26.30573 | -69.69864 | 28079 ft | 275 kts | 211° |
| 2026-04-25 08:25 | -26.32388 | -69.70552 | 28079 ft | 274 kts | 211° |
| 2026-04-25 08:25 | -26.34190 | -69.71237 | 28079 ft | 273 kts | 211° |
| 2026-04-25 08:25 | -26.35986 | -69.71922 | 28081 ft | 273 kts | 211° |
| 2026-04-25 08:26 | -26.37778 | -69.72603 | 28077 ft | 272 kts | 211° |
| 2026-04-25 08:26 | -26.39559 | -69.73281 | 28074 ft | 269 kts | 212° |
| 2026-04-25 08:26 | -26.41332 | -69.73954 | 28074 ft | 269 kts | 212° |
| 2026-04-25 08:26 | -26.43096 | -69.74630 | 28072 ft | 268 kts | 212° |
| 2026-04-25 08:27 | -26.44857 | -69.75304 | 28074 ft | 267 kts | 212° |
| 2026-04-25 08:27 | -26.46618 | -69.75973 | 28072 ft | 267 kts | 211° |
| 2026-04-25 08:27 | -26.48370 | -69.76640 | 28078 ft | 266 kts | 212° |
| 2026-04-25 08:27 | -26.50124 | -69.77311 | 28074 ft | 267 kts | 212° |
| 2026-04-25 08:28 | -26.51884 | -69.77984 | 28081 ft | 267 kts | 212° |
| 2026-04-25 08:28 | -26.53615 | -69.78645 | 28077 ft | 267 kts | 212° |
| 2026-04-25 08:28 | -26.55380 | -69.79318 | 28077 ft | 267 kts | 212° |
| 2026-04-25 08:28 | -26.57141 | -69.79991 | 28048 ft | 268 kts | 212° |
| 2026-04-25 08:29 | -26.58907 | -69.80664 | 28054 ft | 268 kts | 211° |
| 2026-04-25 08:29 | -26.60674 | -69.81336 | 28060 ft | 268 kts | 212° |
| 2026-04-25 08:29 | -26.62447 | -69.82000 | 28058 ft | 270 kts | 211° |
| 2026-04-25 08:29 | -26.64213 | -69.82692 | 28058 ft | 269 kts | 212° |
| 2026-04-25 08:30 | -26.65977 | -69.83389 | 28056 ft | 269 kts | 212° |
| 2026-04-25 08:30 | -26.67755 | -69.84057 | 28060 ft | 269 kts | 211° |
| 2026-04-25 08:30 | -26.69524 | -69.84725 | 28051 ft | 268 kts | 212° |
| 2026-04-25 08:30 | -26.71271 | -69.85396 | 28050 ft | 269 kts | 212° |
| 2026-04-25 08:31 | -26.73038 | -69.86075 | 28052 ft | 269 kts | 212° |
| 2026-04-25 08:31 | -26.74806 | -69.86753 | 28057 ft | 268 kts | 212° |
| 2026-04-25 08:31 | -26.76574 | -69.87429 | 28050 ft | 268 kts | 212° |
| 2026-04-25 08:31 | -26.78345 | -69.88110 | 28060 ft | 269 kts | 212° |
| 2026-04-25 08:32 | -26.80119 | -69.88790 | 28049 ft | 269 kts | 212° |
| 2026-04-25 08:32 | -26.81888 | -69.89468 | 28056 ft | 268 kts | 212° |
| 2026-04-25 08:32 | -26.83632 | -69.90137 | 28055 ft | 267 kts | 212° |
| 2026-04-25 08:32 | -26.85409 | -69.90821 | 28058 ft | 267 kts | 212° |
| 2026-04-25 08:33 | -26.87145 | -69.91488 | 28054 ft | 267 kts | 212° |
| 2026-04-25 08:33 | -26.88898 | -69.92162 | 28053 ft | 266 kts | 212° |
| 2026-04-25 08:33 | -26.90650 | -69.92835 | 28058 ft | 266 kts | 212° |
| 2026-04-25 08:33 | -26.92399 | -69.93509 | 28034 ft | 266 kts | 212° |
| 2026-04-25 08:34 | -26.94149 | -69.94181 | 28041 ft | 266 kts | 212° |
| 2026-04-25 08:34 | -26.95905 | -69.94857 | 28045 ft | 266 kts | 212° |
| 2026-04-25 08:34 | -26.97659 | -69.95534 | 28041 ft | 267 kts | 212° |
| 2026-04-25 08:34 | -26.99417 | -69.96210 | 28042 ft | 267 kts | 212° |
| 2026-04-25 08:35 | -27.01177 | -69.96888 | 28038 ft | 268 kts | 212° |
| 2026-04-25 08:35 | -27.02937 | -69.97567 | 28039 ft | 267 kts | 212° |
| 2026-04-25 08:35 | -27.04698 | -69.98244 | 28040 ft | 268 kts | 212° |
| 2026-04-25 08:35 | -27.06462 | -69.98925 | 28042 ft | 268 kts | 212° |
| 2026-04-25 08:36 | -27.08225 | -69.99606 | 28048 ft | 268 kts | 212° |
| 2026-04-25 08:36 | -27.09991 | -70.00287 | 28043 ft | 269 kts | 212° |
| 2026-04-25 08:36 | -27.11758 | -70.00968 | 28041 ft | 268 kts | 212° |
| 2026-04-25 08:36 | -27.13526 | -70.01651 | 28047 ft | 268 kts | 212° |
| 2026-04-25 08:37 | -27.15262 | -70.02320 | 28048 ft | 267 kts | 212° |
| 2026-04-25 08:37 | -27.17017 | -70.02998 | 28047 ft | 266 kts | 212° |
| 2026-04-25 08:37 | -27.18771 | -70.03680 | 28049 ft | 267 kts | 212° |
| 2026-04-25 08:37 | -27.20531 | -70.04361 | 28051 ft | 268 kts | 212° |
| 2026-04-25 08:38 | -27.22297 | -70.05043 | 28052 ft | 268 kts | 212° |
| 2026-04-25 08:38 | -27.24057 | -70.05722 | 28052 ft | 267 kts | 212° |
| 2026-04-25 08:38 | -27.25818 | -70.06405 | 28050 ft | 267 kts | 212° |
| 2026-04-25 08:38 | -27.27574 | -70.07086 | 28042 ft | 267 kts | 212° |
| 2026-04-25 08:39 | -27.29349 | -70.07746 | 28040 ft | 268 kts | 211° |
| 2026-04-25 08:39 | -27.31119 | -70.08405 | 28040 ft | 268 kts | 211° |
| 2026-04-25 08:39 | -27.32884 | -70.09067 | 28042 ft | 267 kts | 212° |
| 2026-04-25 08:39 | -27.34649 | -70.09732 | 28044 ft | 268 kts | 212° |
| 2026-04-25 08:40 | -27.36413 | -70.10398 | 28042 ft | 268 kts | 211° |
| 2026-04-25 08:40 | -27.38187 | -70.11064 | 28042 ft | 268 kts | 211° |
| 2026-04-25 08:40 | -27.39956 | -70.11729 | 28042 ft | 268 kts | 212° |
| 2026-04-25 08:40 | -27.41724 | -70.12396 | 28040 ft | 268 kts | 212° |
| 2026-04-25 08:41 | -27.43468 | -70.13053 | 28037 ft | 268 kts | 211° |
| 2026-04-25 08:41 | -27.45233 | -70.13712 | 28043 ft | 267 kts | 212° |
| 2026-04-25 08:41 | -27.46996 | -70.14383 | 28043 ft | 267 kts | 212° |
| 2026-04-25 08:41 | -27.48758 | -70.15049 | 28042 ft | 267 kts | 211° |
| 2026-04-25 08:42 | -27.50526 | -70.15715 | 28042 ft | 268 kts | 212° |
| 2026-04-25 08:42 | -27.52295 | -70.16381 | 28040 ft | 268 kts | 212° |
| 2026-04-25 08:42 | -27.54062 | -70.17047 | 28041 ft | 268 kts | 212° |
| 2026-04-25 08:42 | -27.55822 | -70.17712 | 28048 ft | 267 kts | 212° |
| 2026-04-25 08:43 | -27.57588 | -70.18380 | 28048 ft | 268 kts | 212° |
| 2026-04-25 08:43 | -27.59357 | -70.19047 | 28046 ft | 267 kts | 212° |
| 2026-04-25 08:43 | -27.61098 | -70.19692 | 28049 ft | 266 kts | 212° |
| 2026-04-25 08:43 | -27.62854 | -70.20370 | 28036 ft | 266 kts | 212° |
| 2026-04-25 08:44 | -27.64613 | -70.21043 | 28034 ft | 267 kts | 212° |
| 2026-04-25 08:44 | -27.66380 | -70.21705 | 28032 ft | 268 kts | 212° |
| 2026-04-25 08:44 | -27.68149 | -70.22371 | 28035 ft | 267 kts | 212° |
| 2026-04-25 08:44 | -27.69911 | -70.23040 | 28027 ft | 266 kts | 212° |
| 2026-04-25 08:45 | -27.71667 | -70.23705 | 28031 ft | 265 kts | 212° |
| 2026-04-25 08:45 | -27.73419 | -70.24366 | 28030 ft | 265 kts | 212° |
| 2026-04-25 08:45 | -27.75170 | -70.25024 | 28032 ft | 265 kts | 212° |
| 2026-04-25 08:45 | -27.76915 | -70.25692 | 28029 ft | 265 kts | 213° |
| 2026-04-25 08:46 | -27.78664 | -70.26363 | 28028 ft | 265 kts | 212° |
| 2026-04-25 08:46 | -27.80415 | -70.27023 | 28046 ft | 266 kts | 213° |
| 2026-04-25 08:46 | -27.82167 | -70.27685 | 28047 ft | 265 kts | 213° |
| 2026-04-25 08:46 | -27.83911 | -70.28347 | 28047 ft | 264 kts | 213° |
| 2026-04-25 08:47 | -27.85652 | -70.29009 | 28046 ft | 264 kts | 213° |
| 2026-04-25 08:47 | -27.87393 | -70.29669 | 28046 ft | 263 kts | 213° |
| 2026-04-25 08:47 | -27.89105 | -70.30320 | 28043 ft | 263 kts | 213° |
| 2026-04-25 08:47 | -27.90841 | -70.30981 | 28046 ft | 264 kts | 213° |
| 2026-04-25 08:48 | -27.92580 | -70.31643 | 28051 ft | 264 kts | 213° |
| 2026-04-25 08:48 | -27.94322 | -70.32304 | 28051 ft | 263 kts | 213° |
| 2026-04-25 08:48 | -27.96055 | -70.32964 | 28052 ft | 263 kts | 213° |
| 2026-04-25 08:48 | -27.97799 | -70.33628 | 28051 ft | 263 kts | 213° |
| 2026-04-25 08:49 | -27.99540 | -70.34291 | 28043 ft | 263 kts | 213° |
| 2026-04-25 08:49 | -28.01276 | -70.34952 | 28043 ft | 263 kts | 213° |
| 2026-04-25 08:49 | -28.03010 | -70.35613 | 28042 ft | 263 kts | 213° |
| 2026-04-25 08:49 | -28.04743 | -70.36271 | 28051 ft | 263 kts | 212° |
| 2026-04-25 08:50 | -28.06480 | -70.36913 | 28036 ft | 261 kts | 213° |
| 2026-04-25 08:50 | -28.08198 | -70.37581 | 28045 ft | 261 kts | 213° |
| 2026-04-25 08:50 | -28.09914 | -70.38257 | 28046 ft | 263 kts | 213° |
| 2026-04-25 08:50 | -28.11657 | -70.38925 | 28038 ft | 264 kts | 213° |
| 2026-04-25 08:51 | -28.13402 | -70.39558 | 28041 ft | 264 kts | 212° |
| 2026-04-25 08:51 | -28.15140 | -70.40215 | 28045 ft | 262 kts | 214° |
| 2026-04-25 08:51 | -28.16856 | -70.40918 | 28045 ft | 263 kts | 214° |
| 2026-04-25 08:51 | -28.18583 | -70.41577 | 28045 ft | 265 kts | 212° |
| 2026-04-25 08:52 | -28.20338 | -70.42226 | 28044 ft | 265 kts | 212° |
| 2026-04-25 08:52 | -28.22091 | -70.42890 | 28045 ft | 265 kts | 213° |
| 2026-04-25 08:52 | -28.23834 | -70.43565 | 28047 ft | 265 kts | 213° |
| 2026-04-25 08:52 | -28.25578 | -70.44242 | 28044 ft | 265 kts | 213° |
| 2026-04-25 08:53 | -28.27327 | -70.44907 | 28047 ft | 265 kts | 213° |
| 2026-04-25 08:53 | -28.29073 | -70.45571 | 28047 ft | 264 kts | 213° |
| 2026-04-25 08:53 | -28.30812 | -70.46239 | 28034 ft | 262 kts | 213° |
| 2026-04-25 08:53 | -28.32532 | -70.46909 | 28040 ft | 260 kts | 212° |
| 2026-04-25 08:54 | -28.34251 | -70.47548 | 28040 ft | 259 kts | 213° |
| 2026-04-25 08:54 | -28.35955 | -70.48195 | 28037 ft | 258 kts | 213° |
| 2026-04-25 08:54 | -28.37647 | -70.48859 | 28032 ft | 257 kts | 213° |
| 2026-04-25 08:54 | -28.39343 | -70.49513 | 28052 ft | 259 kts | 214° |
| 2026-04-25 08:55 | -28.41061 | -70.50181 | 28042 ft | 262 kts | 212° |
| 2026-04-25 08:55 | -28.42799 | -70.50835 | 28028 ft | 265 kts | 213° |
| 2026-04-25 08:55 | -28.44547 | -70.51508 | 28030 ft | 265 kts | 213° |
| 2026-04-25 08:55 | -28.46273 | -70.52174 | 28027 ft | 265 kts | 213° |
| 2026-04-25 08:56 | -28.48026 | -70.52846 | 28034 ft | 266 kts | 213° |
| 2026-04-25 08:56 | -28.49786 | -70.53504 | 28029 ft | 270 kts | 210° |
| 2026-04-25 08:56 | -28.51711 | -70.53803 | 28045 ft | 284 kts | 199° |
| 2026-04-25 08:56 | -28.53692 | -70.53958 | 28046 ft | 286 kts | 198° |
| 2026-04-25 08:57 | -28.55679 | -70.54122 | 28034 ft | 286 kts | 198° |
| 2026-04-25 08:57 | -28.57668 | -70.54318 | 28036 ft | 285 kts | 199° |
| 2026-04-25 08:57 | -28.59589 | -70.54618 | 28029 ft | 271 kts | 211° |
| 2026-04-25 08:57 | -28.61067 | -70.55696 | 28033 ft | 241 kts | 239° |
| 2026-04-25 08:58 | -28.61786 | -70.57330 | 28041 ft | 229 kts | 255° |
| 2026-04-25 08:58 | -28.62379 | -70.59013 | 28041 ft | 230 kts | 252° |
| 2026-04-25 08:58 | -28.63130 | -70.60637 | 28044 ft | 233 kts | 246° |
| 2026-04-25 08:58 | -28.64029 | -70.62183 | 28044 ft | 235 kts | 244° |
| 2026-04-25 08:59 | -28.64956 | -70.63718 | 28024 ft | 235 kts | 244° |
| 2026-04-25 08:59 | -28.65852 | -70.65264 | 28037 ft | 233 kts | 245° |
| 2026-04-25 08:59 | -28.66740 | -70.66810 | 28039 ft | 233 kts | 245° |
| 2026-04-25 08:59 | -28.67625 | -70.68364 | 28041 ft | 233 kts | 245° |
| 2026-04-25 09:00 | -28.68514 | -70.69912 | 28040 ft | 234 kts | 245° |
| 2026-04-25 09:00 | -28.69407 | -70.71466 | 28035 ft | 234 kts | 245° |
| 2026-04-25 09:00 | -28.70297 | -70.73018 | 28059 ft | 235 kts | 244° |
| 2026-04-25 09:00 | -28.70899 | -70.74048 | 28044 ft | 236 kts | 244° |
| 2026-04-25 09:01 | -28.71803 | -70.75609 | 28040 ft | 236 kts | 245° |
| 2026-04-25 09:01 | -28.72697 | -70.77179 | 28032 ft | 236 kts | 245° |
| 2026-04-25 09:01 | -28.73680 | -70.78685 | 28032 ft | 244 kts | 233° |
| 2026-04-25 09:01 | -28.75226 | -70.79655 | 28042 ft | 270 kts | 208° |
| 2026-04-25 09:02 | -28.77806 | -70.79835 | 28048 ft | 281 kts | 194° |
| 2026-04-25 09:02 | -28.79135 | -70.79831 | 27755 ft | 286 kts | 194° |
| 2026-04-25 09:02 | -28.81161 | -70.79874 | 27187 ft | 296 kts | 194° |
| 2026-04-25 09:02 | -28.83252 | -70.79935 | 26622 ft | 303 kts | 192° |
| 2026-04-25 09:03 | -28.85382 | -70.79964 | 26075 ft | 308 kts | 191° |
| 2026-04-25 09:03 | -28.87501 | -70.79986 | 25544 ft | 309 kts | 191° |
| 2026-04-25 09:03 | -28.89681 | -70.80023 | 25016 ft | 309 kts | 190° |
| 2026-04-25 09:03 | -28.91797 | -70.80065 | 24501 ft | 308 kts | 190° |
| 2026-04-25 09:04 | -28.93931 | -70.80103 | 23989 ft | 306 kts | 189° |
| 2026-04-25 09:04 | -28.96053 | -70.80141 | 23451 ft | 303 kts | 189° |
| 2026-04-25 09:04 | -28.98154 | -70.80177 | 22812 ft | 301 kts | 188° |
| 2026-04-25 09:04 | -29.00250 | -70.80210 | 22189 ft | 300 kts | 189° |
| 2026-04-25 09:05 | -29.02332 | -70.80251 | 21558 ft | 298 kts | 188° |
| 2026-04-25 09:05 | -29.04401 | -70.80290 | 20942 ft | 296 kts | 188° |
| 2026-04-25 09:05 | -29.06434 | -70.80324 | 20343 ft | 294 kts | 188° |
| 2026-04-25 09:05 | -29.08474 | -70.80360 | 19751 ft | 292 kts | 188° |
| 2026-04-25 09:06 | -29.10499 | -70.80397 | 19173 ft | 290 kts | 188° |
| 2026-04-25 09:06 | -29.12514 | -70.80432 | 18602 ft | 288 kts | 187° |
| 2026-04-25 09:06 | -29.14506 | -70.80468 | 17994 ft | 286 kts | 187° |
| 2026-04-25 09:06 | -29.16488 | -70.80505 | 17349 ft | 284 kts | 187° |
| 2026-04-25 09:07 | -29.18460 | -70.80539 | 16717 ft | 283 kts | 186° |
| 2026-04-25 09:07 | -29.20423 | -70.80574 | 16098 ft | 282 kts | 186° |
| 2026-04-25 09:07 | -29.22383 | -70.80608 | 15497 ft | 280 kts | 185° |
| 2026-04-25 09:07 | -29.24330 | -70.80645 | 14904 ft | 280 kts | 185° |
| 2026-04-25 09:08 | -29.26274 | -70.80686 | 14322 ft | 278 kts | 185° |
| 2026-04-25 09:08 | -29.28189 | -70.80939 | 13742 ft | 276 kts | 193° |
| 2026-04-25 09:08 | -29.30110 | -70.81318 | 13128 ft | 289 kts | 190° |
| 2026-04-25 09:08 | -29.32106 | -70.81584 | 13069 ft | 287 kts | 188° |
| 2026-04-25 09:09 | -29.34079 | -70.81829 | 13070 ft | 283 kts | 189° |
| 2026-04-25 09:09 | -29.36031 | -70.82120 | 13070 ft | 281 kts | 190° |
| 2026-04-25 09:09 | -29.37940 | -70.82408 | 13070 ft | 280 kts | 189° |
| 2026-04-25 09:09 | -29.39887 | -70.82674 | 13068 ft | 278 kts | 189° |
| 2026-04-25 09:10 | -29.41777 | -70.82930 | 13071 ft | 277 kts | 189° |
| 2026-04-25 09:10 | -29.43693 | -70.83202 | 13071 ft | 277 kts | 189° |
| 2026-04-25 09:10 | -29.45604 | -70.83474 | 13065 ft | 277 kts | 189° |
| 2026-04-25 09:10 | -29.47514 | -70.83742 | 13068 ft | 277 kts | 189° |
| 2026-04-25 09:11 | -29.51338 | -70.84272 | 13065 ft | 276 kts | 189° |
| 2026-04-25 09:11 | -29.53239 | -70.84547 | 13067 ft | 276 kts | 189° |
| 2026-04-25 09:11 | -29.55152 | -70.84817 | 13074 ft | 276 kts | 189° |
| 2026-04-25 09:12 | -29.57066 | -70.85082 | 13058 ft | 277 kts | 190° |
| 2026-04-25 09:12 | -29.58979 | -70.85350 | 13063 ft | 277 kts | 189° |
| 2026-04-25 09:12 | -29.60892 | -70.85621 | 13070 ft | 277 kts | 189° |
| 2026-04-25 09:12 | -29.62812 | -70.85893 | 13068 ft | 278 kts | 190° |
| 2026-04-25 09:13 | -29.64729 | -70.86164 | 13063 ft | 278 kts | 189° |
| 2026-04-25 09:13 | -29.66623 | -70.86429 | 13059 ft | 277 kts | 190° |
| 2026-04-25 09:13 | -29.68534 | -70.86698 | 13066 ft | 277 kts | 189° |
| 2026-04-25 09:13 | -29.70447 | -70.86969 | 13069 ft | 277 kts | 189° |
| 2026-04-25 09:14 | -29.72360 | -70.87238 | 13060 ft | 277 kts | 189° |
| 2026-04-25 09:14 | -29.74274 | -70.87510 | 13058 ft | 277 kts | 189° |
| 2026-04-25 09:14 | -29.76188 | -70.87780 | 13058 ft | 277 kts | 189° |
| 2026-04-25 09:14 | -29.78105 | -70.88050 | 13059 ft | 277 kts | 189° |
| 2026-04-25 09:15 | -29.80018 | -70.88325 | 13053 ft | 276 kts | 189° |
| 2026-04-25 09:15 | -29.81904 | -70.88587 | 13049 ft | 262 kts | 190° |
| 2026-04-25 09:15 | -29.83675 | -70.88869 | 12452 ft | 254 kts | 190° |
| 2026-04-25 09:15 | -29.85406 | -70.89116 | 11830 ft | 247 kts | 189° |
| 2026-04-25 09:16 | -29.87090 | -70.89336 | 11224 ft | 240 kts | 188° |
| 2026-04-25 09:16 | -29.88733 | -70.89562 | 10624 ft | 234 kts | 188° |
| 2026-04-25 09:16 | -29.90339 | -70.89788 | 10040 ft | 231 kts | 188° |
| 2026-04-25 09:16 | -29.91918 | -70.90013 | 9415 ft | 227 kts | 188° |
| 2026-04-25 09:17 | -29.95005 | -70.90452 | 8189 ft | 220 kts | 188° |
| 2026-04-25 09:17 | -29.96497 | -70.90662 | 7697 ft | 213 kts | 188° |
| 2026-04-25 09:17 | -29.97944 | -70.90866 | 7225 ft | 208 kts | 188° |
| 2026-04-25 09:18 | -29.99348 | -70.91066 | 6761 ft | 203 kts | 187° |
| 2026-04-25 09:18 | -30.00716 | -70.91383 | 6279 ft | 199 kts | 203° |
| 2026-04-25 09:18 | -30.01782 | -70.92385 | 5784 ft | 199 kts | 232° |
| 2026-04-25 09:18 | -30.02305 | -70.93852 | 5299 ft | 201 kts | 261° |
| 2026-04-25 09:19 | -30.02140 | -70.95429 | 4970 ft | 197 kts | 291° |
| 2026-04-25 09:19 | -30.01555 | -70.96800 | 4845 ft | 185 kts | 294° |
| 2026-04-25 09:19 | -30.01003 | -70.98114 | 4716 ft | 179 kts | 294° |
| 2026-04-25 09:19 | -30.00461 | -70.99394 | 4575 ft | 178 kts | 294° |
| 2026-04-25 09:20 | -29.99909 | -71.00672 | 4400 ft | 178 kts | 295° |
| 2026-04-25 09:20 | -29.99360 | -71.01948 | 4221 ft | 177 kts | 295° |
| 2026-04-25 09:20 | -29.98828 | -71.03199 | 4118 ft | 173 kts | 294° |
| 2026-04-25 09:20 | -29.98312 | -71.04424 | 4109 ft | 168 kts | 294° |
| 2026-04-25 09:21 | -29.97782 | -71.05675 | 3909 ft | 175 kts | 295° |
| 2026-04-25 09:21 | -29.97241 | -71.06917 | 3715 ft | 172 kts | 295° |
| 2026-04-25 09:21 | -29.96719 | -71.08121 | 3506 ft | 165 kts | 295° |
| 2026-04-25 09:21 | -29.96225 | -71.09270 | 3281 ft | 157 kts | 294° |
| 2026-04-25 09:22 | -29.95755 | -71.10391 | 3051 ft | 154 kts | 294° |
| 2026-04-25 09:22 | -29.95292 | -71.11493 | 2819 ft | 152 kts | 294° |
| 2026-04-25 09:22 | -29.94824 | -71.12574 | 2576 ft | 145 kts | 297° |
| 2026-04-25 09:22 | -29.94384 | -71.13550 | 2311 ft | 132 kts | 296° |
| 2026-04-25 09:23 | -29.94005 | -71.14451 | 2066 ft | 117 kts | 293° |
| 2026-04-25 09:23 | -29.93668 | -71.15282 | 1822 ft | 113 kts | 295° |
| 2026-04-25 09:23 | -29.93320 | -71.16086 | 1564 ft | 112 kts | 296° |
| 2026-04-25 09:23 | -29.92977 | -71.16883 | 1307 ft | 112 kts | 295° |
| 2026-04-25 09:24 | -29.92621 | -71.17707 | 963 ft | 116 kts | 295° |
| 2026-04-25 09:24 | -29.92275 | -71.18513 | 703 ft | 110 kts | 295° |
| 2026-04-25 09:24 | -29.91946 | -71.19259 | 480 ft | 99 kts | 294° |
| 2026-04-25 09:24 | -29.91683 | -71.19861 | 465 ft | 59 kts | 294° |
| 2026-04-25 09:25 | -29.91638 | -71.20135 | 461 ft | 24 kts | 203° |
| 2026-04-25 09:25 | -29.91715 | -71.20117 | 463 ft | 5 kts | 176° |
| 2026-04-25 09:25 | -29.91719 | -71.20117 | 463 ft | 4 kts | 194° |
| 2026-04-25 09:25 | -29.91726 | -71.20120 | 463 ft | 0 kts | 198° |